Bonpas, Illinois
Current Conditions -  °F | °C
As of 6:55 PM on Monday 24 Nov 2014 (Local Time) from KOLY Reporting Station
Overcast Overcast  
Wind Chill: 31°   Ceiling: 8000
Heat Index: 37°   Visibility: 10mi
Dew Point: 30°   Wind: 8mph
Humidity: 75%   Direction: 250°WSW
Pressure: 29.93"   Gusts: NA
Location:  38.6228°N, 87.9781°W
Report Text: KOLY 250055Z AUTO 25007KT 10SM OVC080 03/M01 A2993 RMK AO2
Loading
Personal Weather Stations






























Interactive Weather Map New forecast layout! Learn more

10-Day Weather Forecast

Advertisements
Track Severe Weather on mobile